Nearby METAR Reports

 

KSQL - San Carlos Airpo, California, USA
Distance from station: N 0mi, 1km
Updated: Fri, 15-Dec-2017 4:47pm PST
Haze, Overcast
Haze, Overcast
 Wind from calm
Wind: Calm
Temperature: 54°F , 12°C
Dew Point: 48°F , 9°C
Humidity: 82%
Barometer: 30.07 inHg , 1018.3 hPa
Summary: Haze
Clouds: Overcast
Visibility: 3 miles , 5 km
Cloud details: Overcast 20000 ft
2017/12/16 00:47 KSQL 160047Z 00000KT 3SM HZ OVC200 12/09 A3007
KPAO - Palo Alto, California, USA
Distance from station: ESE 8mi, 13km
Updated: Fri, 15-Dec-2017 4:47pm PST
Haze, Mostly cloudy
Haze, Mostly cloudy
 Wind from NW
Wind: NW 7 mph , 11 km/h
Temperature: 54°F , 12°C
Dew Point: 43°F , 6°C
Humidity: 67%
Barometer: 30.07 inHg , 1018.3 hPa
Summary: Haze
Clouds: Mostly cloudy
Visibility: 6 miles , 10 km
Cloud details: Mostly cloudy 18000 ft
2017/12/16 00:47 KPAO 160047Z 31006KT 6SM HZ BKN180 12/06 A3007
 
KSFO - San Francisco, California, USA
Distance from station: NW 10mi, 16km
Updated: Fri, 15-Dec-2017 4:56pm PST
Mostly cloudy
Mostly cloudy
 Wind from W
Wind: W 16 mph , 26 km/h
Temperature: 55°F , 13°C
Dew Point: 46°F , 8°C
Humidity: 72%
Barometer: 30.06 inHg , 1017.9 hPa
Clouds: Mostly cloudy
Visibility: 7 miles , 11 km
Cloud details: Partly cloudy 18000 ft
Mostly cloudy 20000 ft
2017/12/16 00:56 KSFO 160056Z 28014KT 7SM SCT180 BKN200 13/08 A3006 RMK AO2 SLP179 T01330083
KHWD - Hayward, California, USA
Distance from station: NE 13mi, 21km
Updated: Fri, 15-Dec-2017 4:54pm PST
Haze, Partly cloudy
Haze, Partly cloudy
 Wind from calm
Wind: Calm
Temperature: 55°F , 13°C
Dew Point: 45°F , 7°C
Humidity: 67%
Barometer: 30.06 inHg , 1017.9 hPa
Summary: Haze
Clouds: Partly cloudy
Visibility: 4 miles , 6 km
Cloud details: Partly cloudy 4000 ft
2017/12/16 00:54 KHWD 160054Z 00000KT 4SM HZ SCT040 13/07 A3006 RMK AO2 SLP190 T01280067
 
KNUQ - Moffett Nas/Mtn, California, USA
Distance from station: SE 13mi, 22km
Updated: Fri, 15-Dec-2017 4:56pm PST
Haze, Clear
Haze, Clear
 Wind from calm
Wind: Calm
Temperature: 54°F , 12°C
Dew Point: 43°F , 6°C
Humidity: 67%
Barometer: 30.07 inHg , 1018.3 hPa
Summary: Haze
Clouds: Clear
Visibility: 5 miles , 8 km
2017/12/16 00:56 KNUQ 160056Z 00000KT 5SM HZ CLR 12/06 A3007 RMK AO2 SLP184 T01220061
KHAF - Half Moon Bay, California, USA
Distance from station: W 14mi, 22km
Updated: Fri, 15-Dec-2017 5:15pm PST
Mist, Partly cloudy
Mist, Partly cloudy
 Wind from NNW
Wind: NNW 12 mph , 19 km/h
Temperature: 54°F , 12°C
Dew Point: 52°F , 11°C
Humidity: 94%
Barometer: 30.05 inHg , 1017.6 hPa
Summary: Mist
Clouds: Partly cloudy
Visibility: 5 miles , 8 km
Cloud details: Partly cloudy 400 ft
2017/12/16 01:15 KHAF 160115Z AUTO 34010KT 5SM BR SCT004 12/11 A3005 RMK AO2
 
KOAK - Oakland, California, USA
Distance from station: N 14mi, 23km
Updated: Fri, 15-Dec-2017 4:53pm PST
Haze, Overcast
Haze, Overcast
 Wind from NNW
Wind: NNW 5 mph , 7 km/h
Temperature: 55°F , 13°C
Dew Point: 45°F , 7°C
Humidity: 67%
Barometer: 30.07 inHg , 1018.3 hPa
Summary: Haze
Clouds: Overcast
Visibility: 6 miles , 10 km
Cloud details: Partly cloudy 20000 ft
Overcast 23000 ft
2017/12/16 00:53 KOAK 160053Z 33004KT 6SM HZ SCT200 OVC230 13/07 A3007 RMK AO2 SLP181 T01280072
KSJC - San Jose, California, USA
Distance from station: ESE 21mi, 34km
Updated: Fri, 15-Dec-2017 4:53pm PST
Haze, Overcast
Haze, Overcast
 Wind from WNW
Wind: WNW 6 mph , 9 km/h
Temperature: 55°F , 13°C
Dew Point: 39°F , 4°C
Humidity: 55%
Barometer: 30.07 inHg , 1018.3 hPa
Summary: Haze
Clouds: Overcast
Visibility: 6 miles , 10 km
Cloud details: Few Clouds 100 ft
Mostly cloudy 7000 ft
Overcast 8500 ft
2017/12/16 00:53 KSJC 160053Z 29005KT 6SM HZ FEW001 BKN070 OVC085 13/04 A3007 RMK AO2 SLP180 FU FEW001 FU BKN070 FU OVC085 T01330039
 
KLVK - Livermore, California, USA
Distance from station: ENE 27mi, 43km
Updated: Fri, 15-Dec-2017 4:53pm PST
Haze, Clear
Haze, Clear
 Wind from WSW
Wind: WSW 3 mph , 6 km/h
Temperature: 57°F , 14°C
Dew Point: 39°F , 4°C
Humidity: 51%
Barometer: 30.05 inHg , 1017.6 hPa
Summary: Haze
Clouds: Clear
Visibility: 5 miles , 8 km
2017/12/16 00:53 KLVK 160053Z 25003KT 5SM HZ CLR 14/04 A3005 RMK AO2 SLP175 T01390044
KRHV - San Jose/Reid, California, USA
Distance from station: ESE 27mi, 44km
Updated: Fri, 15-Dec-2017 4:48pm PST
Overcast
Overcast
 Wind from calm
Wind: Calm
Temperature: 57°F , 14°C
Dew Point: 41°F , 5°C
Humidity: 55%
Barometer: 30.05 inHg , 1017.6 hPa
Clouds: Overcast
Visibility: 6 miles , 10 km
Cloud details: Partly cloudy 5000 ft
Mostly cloudy 7000 ft
Overcast 8000 ft
2017/12/16 00:48 KRHV 160048Z 00000KT 6SM SCT050 BKN070 OVC080 14/05 A3005
 
KCCR - Concord, California, USA
Distance from station: NNE 35mi, 57km
Updated: Fri, 15-Dec-2017 4:53pm PST
Haze, Clear
Haze, Clear
 Wind from calm
Wind: Calm
Temperature: 57°F , 14°C
Dew Point: 45°F , 7°C
Humidity: 63%
Barometer: 30.06 inHg , 1017.9 hPa
Summary: Haze
Clouds: Clear
Visibility: 6 miles , 10 km
2017/12/16 00:53 KCCR 160053Z 00000KT 6SM HZ CLR 14/07 A3006 RMK AO2 SLP165 T01390072
KE16 - San Martin, California, USA
Distance from station: SE 46mi, 75km
Updated: Fri, 15-Dec-2017 5:10pm PST
Clear
Clear
 Wind from NW
Wind: NW 6 mph , 9 km/h
Temperature: 57°F , 14°C
Dew Point: 37°F , 3°C
Humidity: 48%
Barometer: 30.07 inHg , 1018.3 hPa
Clouds: Clear
Visibility: 10 miles , 16 km
2017/12/16 01:10 KE16 160110Z AUTO 32005KT 10SM CLR 14/03 A3007 RMK AO2 PWINO PNO
 
KDVO - Novato/Gnoss Fld, California, USA
Distance from station: NNW 47mi, 76km
Updated: Fri, 15-Dec-2017 5:15pm PST
Clear
Clear
 Wind from calm
Wind: Calm
Temperature: 54°F , 12°C
Dew Point: 43°F , 6°C
Humidity: 67%
Barometer: 30.06 inHg , 1017.9 hPa
Clouds: Clear
Visibility: 9 miles , 14 km
2017/12/16 01:15 KDVO 160115Z AUTO 00000KT 9SM CLR 12/06 A3006 RMK AO2
KWVI - Watsonville, California, USA
Distance from station: SSE 47mi, 76km
Updated: Fri, 15-Dec-2017 4:53pm PST
Clear
Clear
 Wind from calm
Wind: Calm
Temperature: 55°F , 13°C
Dew Point: 48°F , 9°C
Humidity: 77%
Barometer: 30.06 inHg , 1017.9 hPa
Clouds: Clear
Visibility: 10 miles , 16 km
2017/12/16 00:53 KWVI 160053Z AUTO 00000KT 10SM CLR 13/09 A3006 RMK AO2 SLP179 T01280089
 
KAPC - Napa, California, USA
Distance from station: N 48mi, 77km
Updated: Fri, 15-Dec-2017 4:54pm PST
Clear
Clear
 Wind from calm
Wind: Calm
Temperature: 54°F , 12°C
Dew Point: 43°F , 6°C
Humidity: 67%
Barometer: 30.06 inHg , 1017.9 hPa
Clouds: Clear
Visibility: 9 miles , 14 km
2017/12/16 00:54 KAPC 160054Z 00000KT 9SM CLR 12/06 A3006 RMK AO2 SLP171 T01220061 $
KO69 - Petaluma, California, USA
Distance from station: NNW 54mi, 88km
Updated: Fri, 15-Dec-2017 4:45pm PST
Clear
Clear
 Wind from WNW
Wind: WNW 8 mph , 13 km/h
Temperature: 55°F , 13°C
Dew Point: 48°F , 9°C
Humidity: 77%
Barometer: 30.07 inHg , 1018.3 hPa
Clouds: Clear
Visibility: 9 miles , 14 km
2017/12/16 00:45 KO69 160045Z AUTO 29007KT 9SM CLR 13/09 A3007 RMK A01
 
KSUU - Travis Afb/Fairf, California, USA
Distance from station: NNE 55mi, 89km
Updated: Fri, 15-Dec-2017 4:58pm PST
Clear
Clear
 Wind from WSW
Wind: WSW 7 mph , 11 km/h
Temperature: 50°F , 10°C
Wind Chill: 47°F , 8°C
Dew Point: 43°F , 6°C
Humidity: 76%
Barometer: 30.04 inHg , 1017.3 hPa
Clouds: Clear
Visibility: 10 miles , 16 km
2017/12/16 00:58 KSUU 160058Z AUTO 24006KT 10SM CLR 10/06 A3004 RMK AO2 SLP180 T01020062 $
KCVH - Hollister Muni, California, USA
Distance from station: SE 62mi, 100km
Updated: Fri, 15-Dec-2017 5:15pm PST
Clear
Clear
 Wind from WSW
Wind: WSW 8 mph , 13 km/h
Temperature: 57°F , 14°C
Dew Point: 37°F , 3°C
Humidity: 48%
Barometer: 30.05 inHg , 1017.6 hPa
Clouds: Clear
Visibility: 10 miles , 16 km
2017/12/16 01:15 KCVH 160115Z AUTO 25007KT 10SM CLR 14/03 A3005 RMK A01
 
KSCK - Stockton, California, USA
Distance from station: ENE 62mi, 100km
Updated: Fri, 15-Dec-2017 4:55pm PST
Haze, Clear
Haze, Clear
 Wind from calm
Wind: Calm
Temperature: 55°F , 13°C
Dew Point: 43°F , 6°C
Humidity: 63%
Barometer: 30.04 inHg , 1017.3 hPa
Summary: Haze
Clouds: Clear
Visibility: 5 miles , 8 km
2017/12/16 00:55 KSCK 160055Z 00000KT 5SM HZ CLR 13/06 A3004 RMK AO2 SLP173 T01330061
KVCB - Vacaville, California, USA
Distance from station: NNE 62mi, 100km
Updated: Fri, 15-Dec-2017 4:53pm PST
Clear
Clear
 Wind from W
Wind: W 3 mph , 6 km/h
Temperature: 55°F , 13°C
Dew Point: 43°F , 6°C
Humidity: 63%
Barometer: 30.06 inHg , 1017.9 hPa
Clouds: Clear
Visibility: 7 miles , 11 km
2017/12/16 00:53 KVCB 160053Z AUTO 27003KT 7SM CLR 13/06 A3006 RMK AO2 SLP180 T01280061